This is the latest recevied weather packets stored in our database for station/object AL7BX-WX. If no packets are shown the sender has not sent any weather packets the latest 10 day(s).
| Time | Temp. | Humidity | Pressure | Rain* | Wind** | Luminosity | Snow |
|---|---|---|---|---|---|---|---|
| 1777884303 | 7.78° C | 61% | 0 hPa | 0 mm | - | - | - |
| 1777879083 | 9.44° C | 55% | 0 hPa | 0 mm | - | - | - |
| 1777874043 | 12.22° C | 47% | 0 hPa | 0 mm | - | - | - |
| 1777873633 | 12.22° C | 47% | 0 hPa | 0 mm | - | - | - |
| 1777870803 | 14.44° C | 42% | 0 hPa | 0 mm | - | - | - |
| 1777868412 | 15.56° C | 39% | 0 hPa | 0 mm | - | - | - |
| 1777866843 | 16.11° C | 33% | 0 hPa | 0 mm | - | - | - |
| 1777865893 | 16.11° C | 38% | 0 hPa | 0 mm | - | - | - |
| 1777863243 | 16.11° C | 38% | 0 hPa | 0 mm | - | - | - |
| 1777854963 | 18.89° C | 30% | 0 hPa | 0 mm | - | - | - |
| 1777852443 | 21.11° C | 25% | 0 hPa | 0 mm | - | - | - |
| 1777849743 | 23.89° C | 23% | 0 hPa | 0 mm | - | - | - |
| 1777846273 | 24.44° C | 22% | 0 hPa | 0 mm | - | - | - |
| 1777841643 | 23.89° C | 21% | 0 hPa | 0 mm | - | - | - |
| 1777841103 | 24.44° C | 20% | 0 hPa | 0 mm | - | - | - |
| 1777838403 | 23.33° C | 21% | 0 hPa | 0 mm | - | - | - |
| 1777834443 | 22.22° C | 21% | 0 hPa | 0 mm | - | - | - |
| 1777829763 | 22.22° C | 24% | 0 hPa | 0 mm | - | - | - |
| 1777823643 | 16.67° C | 32% | 0 hPa | 0 mm | - | - | - |
| 1777822023 | 14.44° C | 37% | 0 hPa | 0 mm | - | - | - |
| 1777820043 | 12.78° C | 37% | 0 hPa | 0 mm | - | - | - |
| 1777819503 | 12.22° C | 39% | 0 hPa | 0 mm | - | - | - |
| 1777816803 | 8.89° C | 45% | 0 hPa | 0 mm | - | - | - |
| 1777814823 | 6.67° C | 49% | 0 hPa | 0 mm | - | - | - |
| 1777807623 | 4.44° C | 47% | 0 hPa | 0 mm | - | - | - |
* Rain latest hour (hover to see other rain measurements)
** Current wind speed in m/s (hover to see current wind gust speed)